Main page
METAR-TAF:

METAR-TAF

Airports :

Allama Iqbal International Airport

Lahore, Pakistan

latitude: 31-31N, longitude: 074-24E, elevation: 216 m

Current weather observation

The report was made 39 minutes ago, at 08:25 UTC
Wind 6 kt from the Northeast
Temperature 24°C
Humidity 38%
Pressure 1014 hPa
Visibility: 5000 m
Few clouds at a height of 10000 ft
haze

METAR: OPLA 180825Z 05006KT 5000 HZ FEW100 24/09 Q1014 RMK QFE988 RMK A29.94

Time: 14:04 (09:04 UTC)

Forecast

The report was made 5 hours and 19 minutes ago, at 03:45 UTC
Forecast valid from 18 at 06 UTC to 19 at 12 UTC
Wind 6 kt from the East/Southeast
Visibility: 4000 m
Few clouds at a height of 10000 ft
smoke
Becoming
from 19 at 00 UTC to 19 at 04 UTC
Wind kt from the North
Visibility: 1000 m
mist
Becoming
from 19 at 04 UTC to 19 at 07 UTC
Visibility: 2000 m
smoke

TAF: OPLA 180345Z 1806/1912 11006KT 4000 FU FEW100 TX25/1910Z TN11/1901Z BECMG 1900/1904 00000KT 1000 BR BECMG 1904/1907 2000 FU

Weather observations and forecasts of more than 4000 airports (METAR and TAF reports).

The available stations are represented by yellow and red dots on the map.

Hover mouse over dot to see the name of the station.

Then click to see weather observations and forecasts.

To change the map : click on the green buttons with a black cross to zoom in, on the green button with a dash to zoom out, or on the green arrows for adjacent maps.


METAR-TAF: